KCLM/CLM METAR and TAF weather

Enter ICAO airport designator
Station Type Date Time Source
KCLM METAR 2022/12/05 13:53 UTC NOAA

KCLM 051353Z AUTO 23003KT 10SM OVC021 02/M01 A3002 RMK AO2 SLP169 T00171011


Station Type Date Time Source
KCLM Decoded METAR 2022/12/05 13:53 UTC NOAA

PORT ANGELES FAIRCHILD INTERNATIONAL , WA, United States (KCLM) 48-07N 123-30W 85M
Dec 05, 2022 - 08:53 AM EST / 2022.12.05 1353 UTC
Wind: from the SW (230 degrees) at 3 MPH (3 KT):0
Visibility: 10 mile(s):0
Sky conditions: overcast
Temperature: 35.1 F (1.7 C)
Dew Point: 30.0 F (-1.1 C)
Relative Humidity: 81%
Pressure (altimeter): 30.02 in. Hg (1016 hPa)
ob: KCLM 051353Z AUTO 23003KT 10SM OVC021 02/M01 A3002 RMK AO2 SLP169 T00171011
cycle: 14

Station Type Date Time Source
KCLM TAF 2022/12/05 12:30 UTC NOAA

TAF KCLM 051126Z 0512/0612 24006KT P6SM OVC018
FM051800 VRB03KT P6SM OVC015
FM060300 25003KT P6SM OVC015

Example: see airport list